sensor_id;sensor_type;location;lat;lon;timestamp;pressure;altitude;pressure_sealevel;temperature;humidity
12791;BME280;6459;42.678;23.310;2022-08-14T00:01:58;54031.44;;;-144.00;75.11
12791;BME280;6459;42.678;23.310;2022-08-14T00:04:28;54065.31;;;-144.00;75.56
12791;BME280;6459;42.678;23.310;2022-08-14T00:07:02;54081.25;;;-144.00;76.11
12791;BME280;6459;42.678;23.310;2022-08-14T00:09:34;54003.53;;;-144.00;76.03
12791;BME280;6459;42.678;23.310;2022-08-14T00:12:22;54073.28;;;-144.00;76.30
12791;BME280;6459;42.678;23.310;2022-08-14T00:15:09;54061.31;;;-144.00;76.74
12791;BME280;6459;42.678;23.310;2022-08-14T00:17:41;54049.38;;;-144.00;76.48
12791;BME280;6459;42.678;23.310;2022-08-14T00:20:15;54055.34;;;-144.00;76.14
12791;BME280;6459;42.678;23.310;2022-08-14T00:22:56;54061.31;;;-144.00;75.61
12791;BME280;6459;42.678;23.310;2022-08-14T00:25:42;54065.31;;;-144.00;75.53
12791;BME280;6459;42.678;23.310;2022-08-14T00:28:30;54059.34;;;-144.00;75.75
12791;BME280;6459;42.678;23.310;2022-08-14T00:31:01;54061.31;;;-144.00;76.06
12791;BME280;6459;42.678;23.310;2022-08-14T00:33:30;54093.19;;;-144.00;76.63
12791;BME280;6459;42.678;23.310;2022-08-14T00:36:18;54041.41;;;-144.00;77.09
12791;BME280;6459;42.678;23.310;2022-08-14T00:39:05;54073.28;;;-144.00;77.17
12791;BME280;6459;42.678;23.310;2022-08-14T00:41:36;54065.31;;;-144.00;77.68
12791;BME280;6459;42.678;23.310;2022-08-14T00:44:08;54063.31;;;-144.00;77.83
12791;BME280;6459;42.678;23.310;2022-08-14T00:46:36;54049.38;;;-144.00;78.06
12791;BME280;6459;42.678;23.310;2022-08-14T00:49:05;54063.31;;;-144.00;77.70
12791;BME280;6459;42.678;23.310;2022-08-14T00:51:40;54045.38;;;-144.00;77.26
12791;BME280;6459;42.678;23.310;2022-08-14T00:54:10;54041.41;;;-144.00;77.09
12791;BME280;6459;42.678;23.310;2022-08-14T00:56:50;54067.31;;;-144.00;76.89
12791;BME280;6459;42.678;23.310;2022-08-14T00:59:22;54067.31;;;-144.00;76.42
12791;BME280;6459;42.678;23.310;2022-08-14T01:01:53;54019.47;;;-144.00;75.53
12791;BME280;6459;42.678;23.310;2022-08-14T01:04:25;54035.41;;;-144.00;74.48
12791;BME280;6459;42.678;23.310;2022-08-14T01:07:14;54027.44;;;-144.00;73.90
12791;BME280;6459;42.678;23.310;2022-08-14T01:09:48;54041.41;;;-144.00;74.20
12791;BME280;6459;42.678;23.310;2022-08-14T01:12:19;54081.25;;;-144.00;73.94
12791;BME280;6459;42.678;23.310;2022-08-14T01:14:56;54067.31;;;-144.00;73.94
12791;BME280;6459;42.678;23.310;2022-08-14T01:17:26;54045.38;;;-144.00;73.71
12791;BME280;6459;42.678;23.310;2022-08-14T01:20:18;54037.41;;;-144.00;73.41
12791;BME280;6459;42.678;23.310;2022-08-14T01:23:09;54025.47;;;-144.00;73.02
12791;BME280;6459;42.678;23.310;2022-08-14T01:25:49;54039.41;;;-144.00;72.90
12791;BME280;6459;42.678;23.310;2022-08-14T01:28:18;54045.38;;;-144.00;72.51
12791;BME280;6459;42.678;23.310;2022-08-14T01:31:10;54069.28;;;-144.00;72.41
12791;BME280;6459;42.678;23.310;2022-08-14T01:33:42;54035.41;;;-144.00;72.33
12791;BME280;6459;42.678;23.310;2022-08-14T01:36:34;54059.34;;;-144.00;72.76
12791;BME280;6459;42.678;23.310;2022-08-14T01:39:08;54037.41;;;-144.00;72.40
12791;BME280;6459;42.678;23.310;2022-08-14T01:41:39;54061.31;;;-144.00;72.03
12791;BME280;6459;42.678;23.310;2022-08-14T01:44:10;54051.34;;;-144.00;71.67
12791;BME280;6459;42.678;23.310;2022-08-14T01:47:01;54083.25;;;-144.00;71.54
12791;BME280;6459;42.678;23.310;2022-08-14T01:49:31;54053.34;;;-144.00;72.02
12791;BME280;6459;42.678;23.310;2022-08-14T01:52:01;54061.31;;;-144.00;72.14
12791;BME280;6459;42.678;23.310;2022-08-14T01:54:40;54081.25;;;-144.00;71.77
12791;BME280;6459;42.678;23.310;2022-08-14T01:57:08;54029.44;;;-144.00;71.48
12791;BME280;6459;42.678;23.310;2022-08-14T01:59:38;54045.38;;;-144.00;71.29
12791;BME280;6459;42.678;23.310;2022-08-14T02:02:10;54073.28;;;-144.00;71.48
12791;BME280;6459;42.678;23.310;2022-08-14T02:04:45;54071.28;;;-144.00;71.46
12791;BME280;6459;42.678;23.310;2022-08-14T02:07:23;54077.25;;;-144.00;71.45
12791;BME280;6459;42.678;23.310;2022-08-14T02:10:13;54073.28;;;-144.00;71.70
12791;BME280;6459;42.678;23.310;2022-08-14T02:12:45;54065.31;;;-144.00;71.44
12791;BME280;6459;42.678;23.310;2022-08-14T02:15:23;54049.38;;;-144.00;71.39
12791;BME280;6459;42.678;23.310;2022-08-14T02:17:52;54045.38;;;-144.00;70.97
12791;BME280;6459;42.678;23.310;2022-08-14T02:20:20;54033.44;;;-144.00;70.66
12791;BME280;6459;42.678;23.310;2022-08-14T02:22:49;54061.31;;;-144.00;70.68
12791;BME280;6459;42.678;23.310;2022-08-14T02:25:22;54075.28;;;-144.00;70.48
12791;BME280;6459;42.678;23.310;2022-08-14T02:27:56;54071.28;;;-144.00;70.62
12791;BME280;6459;42.678;23.310;2022-08-14T02:30:44;54073.28;;;-144.00;70.84
12791;BME280;6459;42.678;23.310;2022-08-14T02:33:12;54049.38;;;-144.00;71.21
12791;BME280;6459;42.678;23.310;2022-08-14T02:35:42;54049.38;;;-144.00;71.48
12791;BME280;6459;42.678;23.310;2022-08-14T02:38:19;54073.28;;;-144.00;71.76
12791;BME280;6459;42.678;23.310;2022-08-14T02:41:02;54041.41;;;-144.00;71.72
12791;BME280;6459;42.678;23.310;2022-08-14T02:43:36;54065.31;;;-144.00;71.87
12791;BME280;6459;42.678;23.310;2022-08-14T02:46:14;54065.31;;;-144.00;71.86
12791;BME280;6459;42.678;23.310;2022-08-14T02:48:50;54081.25;;;-144.00;71.88
12791;BME280;6459;42.678;23.310;2022-08-14T02:51:31;54059.34;;;-144.00;71.96
12791;BME280;6459;42.678;23.310;2022-08-14T02:54:00;54077.25;;;-144.00;72.35
12791;BME280;6459;42.678;23.310;2022-08-14T02:56:32;54081.25;;;-144.00;72.21
12791;BME280;6459;42.678;23.310;2022-08-14T02:59:22;54013.50;;;-144.00;72.46
12791;BME280;6459;42.678;23.310;2022-08-14T03:02:00;54091.22;;;-144.00;72.83
12791;BME280;6459;42.678;23.310;2022-08-14T03:04:30;54089.22;;;-144.00;73.90
12791;BME280;6459;42.678;23.310;2022-08-14T03:06:58;54105.16;;;-144.00;74.48
12791;BME280;6459;42.678;23.310;2022-08-14T03:09:34;54065.31;;;-144.00;74.64
12791;BME280;6459;42.678;23.310;2022-08-14T03:12:27;54121.09;;;-144.00;75.13
12791;BME280;6459;42.678;23.310;2022-08-14T03:14:58;54109.13;;;-144.00;75.56
12791;BME280;6459;42.678;23.310;2022-08-14T03:17:31;54111.13;;;-144.00;75.61
12791;BME280;6459;42.678;23.310;2022-08-14T03:20:19;54069.28;;;-144.00;75.86
12791;BME280;6459;42.678;23.310;2022-08-14T03:22:48;54123.09;;;-144.00;75.81
12791;BME280;6459;42.678;23.310;2022-08-14T03:25:17;54097.19;;;-144.00;75.92
12791;BME280;6459;42.678;23.310;2022-08-14T03:27:49;54113.13;;;-144.00;76.36
12791;BME280;6459;42.678;23.310;2022-08-14T03:30:25;54109.13;;;-144.00;76.60
12791;BME280;6459;42.678;23.310;2022-08-14T03:33:08;54127.06;;;-144.00;77.60
12791;BME280;6459;42.678;23.310;2022-08-14T03:35:38;54127.06;;;-144.00;77.74
12791;BME280;6459;42.678;23.310;2022-08-14T03:38:27;54101.16;;;-144.00;77.71
12791;BME280;6459;42.678;23.310;2022-08-14T03:41:17;54125.06;;;-144.00;77.68
12791;BME280;6459;42.678;23.310;2022-08-14T03:43:52;54095.19;;;-144.00;77.58
12791;BME280;6459;42.678;23.310;2022-08-14T03:46:41;54099.19;;;-144.00;76.95
12791;BME280;6459;42.678;23.310;2022-08-14T03:49:22;54081.25;;;-144.00;76.56
12791;BME280;6459;42.678;23.310;2022-08-14T03:51:55;54101.16;;;-144.00;76.21
12791;BME280;6459;42.678;23.310;2022-08-14T03:54:27;54105.16;;;-144.00;75.74
12791;BME280;6459;42.678;23.310;2022-08-14T03:56:55;54119.09;;;-144.00;75.72
12791;BME280;6459;42.678;23.310;2022-08-14T03:59:30;54119.09;;;-144.00;75.86
12791;BME280;6459;42.678;23.310;2022-08-14T04:01:58;54097.19;;;-144.00;75.77
12791;BME280;6459;42.678;23.310;2022-08-14T04:04:30;54105.16;;;-144.00;75.51
12791;BME280;6459;42.678;23.310;2022-08-14T04:06:59;54148.97;;;-144.00;75.26
12791;BME280;6459;42.678;23.310;2022-08-14T04:09:28;54069.28;;;-144.00;74.92
12791;BME280;6459;42.678;23.310;2022-08-14T04:11:56;54093.19;;;-144.00;74.89
12791;BME280;6459;42.678;23.310;2022-08-14T04:14:27;54097.19;;;-144.00;74.69
12791;BME280;6459;42.678;23.310;2022-08-14T04:16:57;54081.25;;;-144.00;74.85
12791;BME280;6459;42.678;23.310;2022-08-14T04:19:27;54113.13;;;-144.00;74.59
12791;BME280;6459;42.678;23.310;2022-08-14T04:22:02;54047.38;;;-144.00;74.37
12791;BME280;6459;42.678;23.310;2022-08-14T04:24:32;54079.25;;;-144.00;73.96
12791;BME280;6459;42.678;23.310;2022-08-14T04:27:05;54119.09;;;-144.00;74.01
12791;BME280;6459;42.678;23.310;2022-08-14T04:29:36;54109.13;;;-144.00;74.80
12791;BME280;6459;42.678;23.310;2022-08-14T04:32:08;54097.19;;;-144.00;75.03
12791;BME280;6459;42.678;23.310;2022-08-14T04:34:56;54113.13;;;-144.00;75.43
12791;BME280;6459;42.678;23.310;2022-08-14T04:37:26;54081.25;;;-144.00;75.49
12791;BME280;6459;42.678;23.310;2022-08-14T04:40:12;54093.19;;;-144.00;75.45
12791;BME280;6459;42.678;23.310;2022-08-14T04:43:12;54095.19;;;-144.00;75.82
12791;BME280;6459;42.678;23.310;2022-08-14T04:46:06;54119.09;;;-144.00;76.21
12791;BME280;6459;42.678;23.310;2022-08-14T04:48:39;54117.09;;;-144.00;76.23
12791;BME280;6459;42.678;23.310;2022-08-14T04:51:11;54109.13;;;-144.00;76.38
12791;BME280;6459;42.678;23.310;2022-08-14T04:53:42;54137.03;;;-144.00;76.58
12791;BME280;6459;42.678;23.310;2022-08-14T04:56:15;54123.09;;;-144.00;76.60
12791;BME280;6459;42.678;23.310;2022-08-14T04:59:00;54113.13;;;-144.00;76.87
12791;BME280;6459;42.678;23.310;2022-08-14T05:01:36;54109.13;;;-144.00;77.00
12791;BME280;6459;42.678;23.310;2022-08-14T05:04:07;54115.13;;;-144.00;77.05
12791;BME280;6459;42.678;23.310;2022-08-14T05:06:42;54113.13;;;-144.00;77.04
12791;BME280;6459;42.678;23.310;2022-08-14T05:09:10;54109.13;;;-144.00;76.77
12791;BME280;6459;42.678;23.310;2022-08-14T05:11:40;54107.16;;;-144.00;75.68
12791;BME280;6459;42.678;23.310;2022-08-14T05:14:10;54093.19;;;-144.00;75.03
12791;BME280;6459;42.678;23.310;2022-08-14T05:16:58;54091.22;;;-144.00;73.98
12791;BME280;6459;42.678;23.310;2022-08-14T05:19:29;54053.34;;;-144.00;73.40
12791;BME280;6459;42.678;23.310;2022-08-14T05:21:58;54077.25;;;-144.00;72.69
12791;BME280;6459;42.678;23.310;2022-08-14T05:24:45;54049.38;;;-144.00;71.73
12791;BME280;6459;42.678;23.310;2022-08-14T05:27:16;54061.31;;;-144.00;71.02
12791;BME280;6459;42.678;23.310;2022-08-14T05:29:51;54035.41;;;-144.00;70.42
12791;BME280;6459;42.678;23.310;2022-08-14T05:32:22;54033.44;;;-144.00;69.91
12791;BME280;6459;42.678;23.310;2022-08-14T05:34:55;54033.44;;;-144.00;69.66
12791;BME280;6459;42.678;23.310;2022-08-14T05:37:25;54059.34;;;-144.00;69.65
12791;BME280;6459;42.678;23.310;2022-08-14T05:39:56;54051.34;;;-144.00;69.82
12791;BME280;6459;42.678;23.310;2022-08-14T05:42:26;53999.56;;;-144.00;69.34
12791;BME280;6459;42.678;23.310;2022-08-14T05:45:00;53997.56;;;-144.00;69.36
12791;BME280;6459;42.678;23.310;2022-08-14T05:47:30;54059.34;;;-144.00;69.19
12791;BME280;6459;42.678;23.310;2022-08-14T05:50:08;54011.50;;;-144.00;69.02
12791;BME280;6459;42.678;23.310;2022-08-14T05:52:46;54067.31;;;-144.00;69.20
12791;BME280;6459;42.678;23.310;2022-08-14T05:55:15;54081.25;;;-144.00;69.45
12791;BME280;6459;42.678;23.310;2022-08-14T05:57:53;54069.28;;;-144.00;69.24
12791;BME280;6459;42.678;23.310;2022-08-14T06:00:27;54043.38;;;-144.00;69.37
12791;BME280;6459;42.678;23.310;2022-08-14T06:03:07;54027.44;;;-144.00;68.80
12791;BME280;6459;42.678;23.310;2022-08-14T06:05:37;54025.47;;;-144.00;68.82
12791;BME280;6459;42.678;23.310;2022-08-14T06:08:14;54033.44;;;-144.00;68.41
12791;BME280;6459;42.678;23.310;2022-08-14T06:11:03;54033.44;;;-144.00;68.43
12791;BME280;6459;42.678;23.310;2022-08-14T06:13:35;54049.38;;;-144.00;68.40
12791;BME280;6459;42.678;23.310;2022-08-14T06:16:13;54021.47;;;-144.00;68.22
12791;BME280;6459;42.678;23.310;2022-08-14T06:18:45;54039.41;;;-144.00;68.09
12791;BME280;6459;42.678;23.310;2022-08-14T06:21:15;54045.38;;;-144.00;67.62
12791;BME280;6459;42.678;23.310;2022-08-14T06:23:44;54021.47;;;-144.00;67.37
12791;BME280;6459;42.678;23.310;2022-08-14T06:26:15;54053.34;;;-144.00;67.54
12791;BME280;6459;42.678;23.310;2022-08-14T06:28:48;54053.34;;;-144.00;67.00
12791;BME280;6459;42.678;23.310;2022-08-14T06:31:18;54057.34;;;-144.00;66.96
12791;BME280;6459;42.678;23.310;2022-08-14T06:33:48;54025.47;;;-144.00;67.17
12791;BME280;6459;42.678;23.310;2022-08-14T06:36:38;54067.31;;;-144.00;67.41
12791;BME280;6459;42.678;23.310;2022-08-14T06:39:07;54089.22;;;-144.00;67.85
12791;BME280;6459;42.678;23.310;2022-08-14T06:41:38;54077.25;;;-144.00;68.20
12791;BME280;6459;42.678;23.310;2022-08-14T06:44:26;54063.31;;;-144.00;68.91
12791;BME280;6459;42.678;23.310;2022-08-14T06:46:59;54061.31;;;-144.00;68.56
12791;BME280;6459;42.678;23.310;2022-08-14T06:49:27;54049.38;;;-144.00;68.23
12791;BME280;6459;42.678;23.310;2022-08-14T06:52:01;54095.19;;;-144.00;68.19
12791;BME280;6459;42.678;23.310;2022-08-14T06:54:31;54045.38;;;-144.00;67.83
12791;BME280;6459;42.678;23.310;2022-08-14T06:57:01;54053.34;;;-144.00;67.77
12791;BME280;6459;42.678;23.310;2022-08-14T06:59:29;54061.31;;;-144.00;67.63
12791;BME280;6459;42.678;23.310;2022-08-14T07:01:59;54047.38;;;-144.00;67.69
12791;BME280;6459;42.678;23.310;2022-08-14T07:04:45;54017.50;;;-144.00;67.75
12791;BME280;6459;42.678;23.310;2022-08-14T07:07:50;54037.41;;;-144.00;67.96
12791;BME280;6459;42.678;23.310;2022-08-14T07:10:18;54029.44;;;-144.00;67.49
12791;BME280;6459;42.678;23.310;2022-08-14T07:12:50;54037.41;;;-144.00;67.37
12791;BME280;6459;42.678;23.310;2022-08-14T07:15:30;54041.41;;;-144.00;67.25
12791;BME280;6459;42.678;23.310;2022-08-14T07:18:06;54073.28;;;-144.00;67.08
12791;BME280;6459;42.678;23.310;2022-08-14T07:20:35;54061.31;;;-144.00;66.88
12791;BME280;6459;42.678;23.310;2022-08-14T07:23:07;54065.31;;;-144.00;66.57
12791;BME280;6459;42.678;23.310;2022-08-14T07:25:46;54045.38;;;-144.00;65.60
12791;BME280;6459;42.678;23.310;2022-08-14T07:28:19;54025.47;;;-144.00;63.90
12791;BME280;6459;42.678;23.310;2022-08-14T07:30:58;54049.38;;;-144.00;63.33
12791;BME280;6459;42.678;23.310;2022-08-14T07:33:33;54033.44;;;-144.00;63.33
12791;BME280;6459;42.678;23.310;2022-08-14T07:36:05;54035.41;;;-144.00;64.09
12791;BME280;6459;42.678;23.310;2022-08-14T07:38:57;54023.47;;;-144.00;64.26
12791;BME280;6459;42.678;23.310;2022-08-14T07:41:26;54027.44;;;-144.00;63.37
12791;BME280;6459;42.678;23.310;2022-08-14T07:44:08;54025.47;;;-144.00;63.99
12791;BME280;6459;42.678;23.310;2022-08-14T07:47:10;54071.28;;;-144.00;64.43
12791;BME280;6459;42.678;23.310;2022-08-14T07:49:40;54027.44;;;-144.00;64.31
12791;BME280;6459;42.678;23.310;2022-08-14T07:52:09;54045.38;;;-144.00;63.64
12791;BME280;6459;42.678;23.310;2022-08-14T07:54:41;54049.38;;;-144.00;63.33
12791;BME280;6459;42.678;23.310;2022-08-14T07:57:10;54015.50;;;-144.00;63.39
12791;BME280;6459;42.678;23.310;2022-08-14T07:59:50;54021.47;;;-144.00;63.57
12791;BME280;6459;42.678;23.310;2022-08-14T08:02:29;54041.41;;;-144.00;63.29
12791;BME280;6459;42.678;23.310;2022-08-14T08:04:59;54009.53;;;-144.00;63.34
12791;BME280;6459;42.678;23.310;2022-08-14T08:07:30;54013.50;;;-144.00;62.97
12791;BME280;6459;42.678;23.310;2022-08-14T08:10:04;54037.41;;;-144.00;62.39
12791;BME280;6459;42.678;23.310;2022-08-14T08:13:15;54017.50;;;-144.00;62.46
12791;BME280;6459;42.678;23.310;2022-08-14T08:15:49;53977.66;;;-144.00;62.16
12791;BME280;6459;42.678;23.310;2022-08-14T08:18:19;53993.59;;;-144.00;61.53
12791;BME280;6459;42.678;23.310;2022-08-14T08:20:56;54017.50;;;-144.00;60.86
12791;BME280;6459;42.678;23.310;2022-08-14T08:23:27;54007.53;;;-144.00;61.36
12791;BME280;6459;42.678;23.310;2022-08-14T08:26:13;53985.63;;;-144.00;61.48
12791;BME280;6459;42.678;23.310;2022-08-14T08:28:43;54043.38;;;-144.00;61.08
12791;BME280;6459;42.678;23.310;2022-08-14T08:31:11;53987.59;;;-144.00;61.02
12791;BME280;6459;42.678;23.310;2022-08-14T08:33:50;54051.34;;;-144.00;61.38
12791;BME280;6459;42.678;23.310;2022-08-14T08:36:19;54051.34;;;-144.00;61.25
12791;BME280;6459;42.678;23.310;2022-08-14T08:38:48;54035.41;;;-144.00;61.75
12791;BME280;6459;42.678;23.310;2022-08-14T08:41:42;54031.44;;;-144.00;61.88
12791;BME280;6459;42.678;23.310;2022-08-14T08:44:15;54039.41;;;-144.00;62.24
12791;BME280;6459;42.678;23.310;2022-08-14T08:46:59;54029.44;;;-144.00;62.92
12791;BME280;6459;42.678;23.310;2022-08-14T08:49:37;54005.53;;;-144.00;63.33
12791;BME280;6459;42.678;23.310;2022-08-14T08:52:25;54061.31;;;-144.00;63.41
12791;BME280;6459;42.678;23.310;2022-08-14T08:54:57;53997.56;;;-144.00;63.67
12791;BME280;6459;42.678;23.310;2022-08-14T08:57:32;54065.31;;;-144.00;63.92
12791;BME280;6459;42.678;23.310;2022-08-14T09:00:12;54017.50;;;-144.00;63.14
12791;BME280;6459;42.678;23.310;2022-08-14T09:02:55;54017.50;;;-144.00;62.66
12791;BME280;6459;42.678;23.310;2022-08-14T09:05:26;54001.56;;;-144.00;61.68
12791;BME280;6459;42.678;23.310;2022-08-14T09:08:08;53987.59;;;-144.00;61.98
12791;BME280;6459;42.678;23.310;2022-08-14T09:10:57;54013.50;;;-144.00;61.37
12791;BME280;6459;42.678;23.310;2022-08-14T09:13:27;53989.59;;;-144.00;61.18
12791;BME280;6459;42.678;23.310;2022-08-14T09:15:59;54005.53;;;-144.00;60.81
12791;BME280;6459;42.678;23.310;2022-08-14T09:18:45;53969.69;;;-144.00;60.23
12791;BME280;6459;42.678;23.310;2022-08-14T09:21:14;53981.63;;;-144.00;60.97
12791;BME280;6459;42.678;23.310;2022-08-14T09:23:44;53985.63;;;-144.00;60.80
12791;BME280;6459;42.678;23.310;2022-08-14T09:26:33;53971.66;;;-144.00;60.31
12791;BME280;6459;42.678;23.310;2022-08-14T09:29:05;54021.47;;;-144.00;60.96
12791;BME280;6459;42.678;23.310;2022-08-14T09:31:39;53987.59;;;-144.00;60.49
12791;BME280;6459;42.678;23.310;2022-08-14T09:34:24;53979.63;;;-144.00;59.93
12791;BME280;6459;42.678;23.310;2022-08-14T09:37:10;53985.63;;;-144.00;60.06
12791;BME280;6459;42.678;23.310;2022-08-14T09:40:04;53989.59;;;-144.00;60.34
12791;BME280;6459;42.678;23.310;2022-08-14T09:42:47;53981.63;;;-144.00;60.29
12791;BME280;6459;42.678;23.310;2022-08-14T09:45:20;53963.69;;;-144.00;60.12
12791;BME280;6459;42.678;23.310;2022-08-14T09:47:51;53977.66;;;-144.00;59.21
12791;BME280;6459;42.678;23.310;2022-08-14T09:50:22;53957.72;;;-144.00;59.10
12791;BME280;6459;42.678;23.310;2022-08-14T09:52:55;53973.66;;;-144.00;58.25
12791;BME280;6459;42.678;23.310;2022-08-14T09:55:25;53949.75;;;-144.00;57.74
12791;BME280;6459;42.678;23.310;2022-08-14T09:58:09;53949.75;;;-144.00;57.23
12791;BME280;6459;42.678;23.310;2022-08-14T10:00:48;53957.72;;;-144.00;56.61
12791;BME280;6459;42.678;23.310;2022-08-14T10:03:29;53949.75;;;-144.00;56.59
12791;BME280;6459;42.678;23.310;2022-08-14T10:06:05;53949.75;;;-144.00;56.71
12791;BME280;6459;42.678;23.310;2022-08-14T10:08:43;53959.72;;;-144.00;56.26
12791;BME280;6459;42.678;23.310;2022-08-14T10:11:19;53949.75;;;-144.00;57.11
12791;BME280;6459;42.678;23.310;2022-08-14T10:13:50;53917.88;;;-144.00;57.36
12791;BME280;6459;42.678;23.310;2022-08-14T10:16:24;53935.81;;;-144.00;56.46
12791;BME280;6459;42.678;23.310;2022-08-14T10:19:02;53949.75;;;-144.00;55.71
12791;BME280;6459;42.678;23.310;2022-08-14T10:21:33;53937.81;;;-144.00;54.98
12791;BME280;6459;42.678;23.310;2022-08-14T10:24:25;53969.69;;;-144.00;55.20
12791;BME280;6459;42.678;23.310;2022-08-14T10:27:03;53953.75;;;-144.00;54.96
12791;BME280;6459;42.678;23.310;2022-08-14T10:29:35;53937.81;;;-144.00;54.92
12791;BME280;6459;42.678;23.310;2022-08-14T10:32:13;53939.78;;;-144.00;54.58
12791;BME280;6459;42.678;23.310;2022-08-14T10:34:45;53921.88;;;-144.00;54.55
12791;BME280;6459;42.678;23.310;2022-08-14T10:37:18;53949.75;;;-144.00;54.29
12791;BME280;6459;42.678;23.310;2022-08-14T10:39:58;53949.75;;;-144.00;54.60
12791;BME280;6459;42.678;23.310;2022-08-14T10:42:47;53945.78;;;-144.00;54.55
12791;BME280;6459;42.678;23.310;2022-08-14T10:45:16;53921.88;;;-144.00;54.63
12791;BME280;6459;42.678;23.310;2022-08-14T10:47:49;53927.84;;;-144.00;54.94
12791;BME280;6459;42.678;23.310;2022-08-14T10:50:35;53925.84;;;-144.00;54.69
12791;BME280;6459;42.678;23.310;2022-08-14T10:53:05;53929.84;;;-144.00;54.88
12791;BME280;6459;42.678;23.310;2022-08-14T10:55:36;53901.94;;;-144.00;54.85
12791;BME280;6459;42.678;23.310;2022-08-14T10:58:11;53905.94;;;-144.00;54.11
12791;BME280;6459;42.678;23.310;2022-08-14T11:00:55;53897.97;;;-144.00;54.26
12791;BME280;6459;42.678;23.310;2022-08-14T11:03:37;53941.78;;;-144.00;55.19
12791;BME280;6459;42.678;23.310;2022-08-14T11:06:23;53933.81;;;-144.00;55.68
12791;BME280;6459;42.678;23.310;2022-08-14T11:08:53;53933.81;;;-144.00;56.03
12791;BME280;6459;42.678;23.310;2022-08-14T11:11:24;53937.81;;;-144.00;56.56
12791;BME280;6459;42.678;23.310;2022-08-14T11:14:03;53935.81;;;-144.00;55.70
12791;BME280;6459;42.678;23.310;2022-08-14T11:16:35;53913.91;;;-144.00;53.54
12791;BME280;6459;42.678;23.310;2022-08-14T11:19:08;53893.97;;;-144.00;52.49
12791;BME280;6459;42.678;23.310;2022-08-14T11:21:38;53884.00;;;-144.00;52.88
12791;BME280;6459;42.678;23.310;2022-08-14T11:24:12;53893.97;;;-144.00;53.34
12791;BME280;6459;42.678;23.310;2022-08-14T11:27:02;53953.75;;;-144.00;53.52
12791;BME280;6459;42.678;23.310;2022-08-14T11:29:31;53909.91;;;-144.00;52.83
12791;BME280;6459;42.678;23.310;2022-08-14T11:32:02;53897.97;;;-144.00;52.37
12791;BME280;6459;42.678;23.310;2022-08-14T11:34:35;53915.88;;;-144.00;52.14
12791;BME280;6459;42.678;23.310;2022-08-14T11:37:08;53866.09;;;-144.00;51.65
12791;BME280;6459;42.678;23.310;2022-08-14T11:39:57;53870.06;;;-144.00;51.21
12791;BME280;6459;42.678;23.310;2022-08-14T11:42:26;53876.03;;;-144.00;51.04
12791;BME280;6459;42.678;23.310;2022-08-14T11:45:15;53846.16;;;-144.00;50.69
12791;BME280;6459;42.678;23.310;2022-08-14T11:47:49;53842.19;;;-144.00;50.36
12791;BME280;6459;42.678;23.310;2022-08-14T11:50:39;53850.16;;;-144.00;50.88
12791;BME280;6459;42.678;23.310;2022-08-14T11:53:18;53842.19;;;-144.00;49.75
12791;BME280;6459;42.678;23.310;2022-08-14T11:55:53;53846.16;;;-144.00;49.70
12791;BME280;6459;42.678;23.310;2022-08-14T11:58:34;53820.25;;;-144.00;49.18
12791;BME280;6459;42.678;23.310;2022-08-14T12:01:05;53846.16;;;-144.00;49.25
12791;BME280;6459;42.678;23.310;2022-08-14T12:03:36;53840.19;;;-144.00;50.79
12791;BME280;6459;42.678;23.310;2022-08-14T12:06:24;53858.13;;;-144.00;50.74
12791;BME280;6459;42.678;23.310;2022-08-14T12:09:04;53886.00;;;-144.00;50.40
12791;BME280;6459;42.678;23.310;2022-08-14T12:11:42;53868.06;;;-144.00;49.98
12791;BME280;6459;42.678;23.310;2022-08-14T12:14:14;53852.13;;;-144.00;50.46
12791;BME280;6459;42.678;23.310;2022-08-14T12:17:03;53838.19;;;-144.00;51.82
12791;BME280;6459;42.678;23.310;2022-08-14T12:19:43;53882.03;;;-144.00;52.48
12791;BME280;6459;42.678;23.310;2022-08-14T12:22:31;53878.03;;;-144.00;52.76
12791;BME280;6459;42.678;23.310;2022-08-14T12:25:01;53888.00;;;-144.00;53.80
12791;BME280;6459;42.678;23.310;2022-08-14T12:27:39;53830.22;;;-144.00;53.43
12791;BME280;6459;42.678;23.310;2022-08-14T12:30:30;53852.13;;;-144.00;53.07
12791;BME280;6459;42.678;23.310;2022-08-14T12:33:20;53856.13;;;-144.00;52.71
12791;BME280;6459;42.678;23.310;2022-08-14T12:36:02;53856.13;;;-144.00;52.24
12791;BME280;6459;42.678;23.310;2022-08-14T12:42:48;53842.19;;;-144.00;51.90
12791;BME280;6459;42.678;23.310;2022-08-14T12:45:30;53872.06;;;-144.00;51.87
12791;BME280;6459;42.678;23.310;2022-08-14T12:48:00;53842.19;;;-144.00;51.82
12791;BME280;6459;42.678;23.310;2022-08-14T12:50:49;53834.22;;;-144.00;51.88
12791;BME280;6459;42.678;23.310;2022-08-14T12:53:18;53834.22;;;-144.00;52.20
12791;BME280;6459;42.678;23.310;2022-08-14T12:55:58;53846.16;;;-144.00;52.76
12791;BME280;6459;42.678;23.310;2022-08-14T12:59:12;53846.16;;;-144.00;53.02
12791;BME280;6459;42.678;23.310;2022-08-14T13:01:41;53834.22;;;-144.00;53.11
12791;BME280;6459;42.678;23.310;2022-08-14T13:04:39;53868.06;;;-144.00;53.19
12791;BME280;6459;42.678;23.310;2022-08-14T13:07:08;53858.13;;;-144.00;53.89
12791;BME280;6459;42.678;23.310;2022-08-14T13:09:37;53846.16;;;-144.00;54.92
12791;BME280;6459;42.678;23.310;2022-08-14T13:12:07;53858.13;;;-144.00;55.49
12791;BME280;6459;42.678;23.310;2022-08-14T13:14:59;53830.22;;;-144.00;55.55
12791;BME280;6459;42.678;23.310;2022-08-14T13:17:40;53858.13;;;-144.00;55.83
12791;BME280;6459;42.678;23.310;2022-08-14T13:20:10;53858.13;;;-144.00;56.64
12791;BME280;6459;42.678;23.310;2022-08-14T13:22:52;53864.09;;;-144.00;56.77
12791;BME280;6459;42.678;23.310;2022-08-14T13:25:30;53858.13;;;-144.00;56.64
12791;BME280;6459;42.678;23.310;2022-08-14T13:28:08;53874.06;;;-144.00;56.62
12791;BME280;6459;42.678;23.310;2022-08-14T13:31:15;53874.06;;;-144.00;56.52
12791;BME280;6459;42.678;23.310;2022-08-14T13:34:01;53858.13;;;-144.00;56.72